sensor_id;sensor_type;location;lat;lon;timestamp;P1;durP1;ratioP1;P2;durP2;ratioP2
48751;SDS011;34544;48.836;9.174;2023-08-31T00:00:07;4.72;;;2.03;;
48751;SDS011;34544;48.836;9.174;2023-08-31T00:02:35;3.97;;;1.95;;
48751;SDS011;34544;48.836;9.174;2023-08-31T00:05:01;2.13;;;1.60;;
48751;SDS011;34544;48.836;9.174;2023-08-31T00:07:27;5.63;;;2.17;;
48751;SDS011;34544;48.836;9.174;2023-08-31T00:09:52;3.28;;;2.15;;
48751;SDS011;34544;48.836;9.174;2023-08-31T00:12:19;2.20;;;1.48;;
48751;SDS011;34544;48.836;9.174;2023-08-31T00:14:45;4.00;;;2.35;;
48751;SDS011;34544;48.836;9.174;2023-08-31T00:17:10;3.05;;;1.60;;
48751;SDS011;34544;48.836;9.174;2023-08-31T00:19:36;3.80;;;2.00;;
48751;SDS011;34544;48.836;9.174;2023-08-31T00:22:02;2.10;;;1.70;;
48751;SDS011;34544;48.836;9.174;2023-08-31T00:24:29;2.85;;;2.00;;
48751;SDS011;34544;48.836;9.174;2023-08-31T00:26:55;3.47;;;2.65;;
48751;SDS011;34544;48.836;9.174;2023-08-31T00:29:21;2.75;;;2.13;;
48751;SDS011;34544;48.836;9.174;2023-08-31T00:31:48;3.45;;;1.98;;
48751;SDS011;34544;48.836;9.174;2023-08-31T00:34:16;4.30;;;2.67;;
48751;SDS011;34544;48.836;9.174;2023-08-31T00:36:43;4.40;;;2.80;;
48751;SDS011;34544;48.836;9.174;2023-08-31T00:39:08;2.50;;;2.03;;
48751;SDS011;34544;48.836;9.174;2023-08-31T00:41:37;3.20;;;2.35;;
48751;SDS011;34544;48.836;9.174;2023-08-31T00:44:03;3.67;;;2.33;;
48751;SDS011;34544;48.836;9.174;2023-08-31T00:46:30;4.75;;;2.60;;
48751;SDS011;34544;48.836;9.174;2023-08-31T00:48:56;5.70;;;2.08;;
48751;SDS011;34544;48.836;9.174;2023-08-31T00:51:23;5.78;;;2.55;;
48751;SDS011;34544;48.836;9.174;2023-08-31T00:53:51;5.38;;;2.33;;
48751;SDS011;34544;48.836;9.174;2023-08-31T00:56:20;3.97;;;2.45;;
48751;SDS011;34544;48.836;9.174;2023-08-31T00:58:46;3.97;;;2.92;;
48751;SDS011;34544;48.836;9.174;2023-08-31T01:03:53;4.82;;;3.03;;
48751;SDS011;34544;48.836;9.174;2023-08-31T01:09:31;6.60;;;2.30;;
48751;SDS011;34544;48.836;9.174;2023-08-31T01:12:15;4.35;;;2.30;;
48751;SDS011;34544;48.836;9.174;2023-08-31T01:14:50;6.60;;;2.75;;
48751;SDS011;34544;48.836;9.174;2023-08-31T01:17:24;3.28;;;2.30;;
48751;SDS011;34544;48.836;9.174;2023-08-31T01:19:55;4.32;;;3.25;;
48751;SDS011;34544;48.836;9.174;2023-08-31T01:25:20;5.70;;;2.80;;
48751;SDS011;34544;48.836;9.174;2023-08-31T01:27:47;4.90;;;2.42;;
48751;SDS011;34544;48.836;9.174;2023-08-31T01:30:14;3.45;;;2.85;;
48751;SDS011;34544;48.836;9.174;2023-08-31T01:32:44;4.53;;;3.15;;
48751;SDS011;34544;48.836;9.174;2023-08-31T01:35:10;6.85;;;3.80;;
48751;SDS011;34544;48.836;9.174;2023-08-31T01:37:45;3.20;;;2.90;;
48751;SDS011;34544;48.836;9.174;2023-08-31T01:40:14;3.88;;;3.20;;
48751;SDS011;34544;48.836;9.174;2023-08-31T01:42:46;13.65;;;3.30;;
48751;SDS011;34544;48.836;9.174;2023-08-31T01:45:13;5.03;;;3.33;;
48751;SDS011;34544;48.836;9.174;2023-08-31T01:47:42;7.07;;;4.25;;
48751;SDS011;34544;48.836;9.174;2023-08-31T01:50:08;5.13;;;3.40;;
48751;SDS011;34544;48.836;9.174;2023-08-31T01:52:34;5.30;;;4.03;;
48751;SDS011;34544;48.836;9.174;2023-08-31T01:55:00;7.80;;;3.10;;
48751;SDS011;34544;48.836;9.174;2023-08-31T01:57:26;6.57;;;3.25;;
48751;SDS011;34544;48.836;9.174;2023-08-31T02:00:15;7.70;;;3.40;;
48751;SDS011;34544;48.836;9.174;2023-08-31T02:02:41;5.97;;;3.35;;
48751;SDS011;34544;48.836;9.174;2023-08-31T02:05:07;4.38;;;3.17;;
48751;SDS011;34544;48.836;9.174;2023-08-31T02:07:34;4.97;;;3.20;;
48751;SDS011;34544;48.836;9.174;2023-08-31T02:10:01;5.45;;;2.78;;
48751;SDS011;34544;48.836;9.174;2023-08-31T02:12:27;3.70;;;2.67;;
48751;SDS011;34544;48.836;9.174;2023-08-31T02:14:52;3.90;;;2.67;;
48751;SDS011;34544;48.836;9.174;2023-08-31T02:17:18;7.13;;;2.40;;
48751;SDS011;34544;48.836;9.174;2023-08-31T02:19:44;2.55;;;2.25;;
48751;SDS011;34544;48.836;9.174;2023-08-31T02:22:10;5.68;;;2.55;;
48751;SDS011;34544;48.836;9.174;2023-08-31T02:24:36;5.55;;;2.60;;
48751;SDS011;34544;48.836;9.174;2023-08-31T02:27:02;3.60;;;2.40;;
48751;SDS011;34544;48.836;9.174;2023-08-31T02:29:27;7.47;;;3.13;;
48751;SDS011;34544;48.836;9.174;2023-08-31T02:31:53;5.35;;;2.50;;
48751;SDS011;34544;48.836;9.174;2023-08-31T02:34:19;4.10;;;2.92;;
48751;SDS011;34544;48.836;9.174;2023-08-31T02:36:44;11.02;;;3.03;;
48751;SDS011;34544;48.836;9.174;2023-08-31T02:39:10;6.10;;;2.67;;
48751;SDS011;34544;48.836;9.174;2023-08-31T02:41:36;3.95;;;2.10;;
48751;SDS011;34544;48.836;9.174;2023-08-31T02:44:03;7.40;;;2.65;;
48751;SDS011;34544;48.836;9.174;2023-08-31T02:46:30;3.72;;;2.45;;
48751;SDS011;34544;48.836;9.174;2023-08-31T02:48:56;3.00;;;2.28;;
48751;SDS011;34544;48.836;9.174;2023-08-31T02:51:22;3.35;;;2.42;;
48751;SDS011;34544;48.836;9.174;2023-08-31T02:53:47;2.45;;;2.10;;
48751;SDS011;34544;48.836;9.174;2023-08-31T02:56:14;3.25;;;2.40;;
48751;SDS011;34544;48.836;9.174;2023-08-31T02:58:40;3.65;;;2.05;;
48751;SDS011;34544;48.836;9.174;2023-08-31T03:01:09;3.08;;;2.00;;
48751;SDS011;34544;48.836;9.174;2023-08-31T03:03:38;4.68;;;2.45;;
48751;SDS011;34544;48.836;9.174;2023-08-31T03:06:06;3.67;;;1.90;;
48751;SDS011;34544;48.836;9.174;2023-08-31T03:08:33;1.70;;;1.60;;
48751;SDS011;34544;48.836;9.174;2023-08-31T03:10:59;4.43;;;2.28;;
48751;SDS011;34544;48.836;9.174;2023-08-31T03:13:25;7.13;;;2.38;;
48751;SDS011;34544;48.836;9.174;2023-08-31T03:15:51;5.68;;;2.15;;
48751;SDS011;34544;48.836;9.174;2023-08-31T03:18:17;2.97;;;2.33;;
48751;SDS011;34544;48.836;9.174;2023-08-31T03:20:43;6.68;;;2.67;;
48751;SDS011;34544;48.836;9.174;2023-08-31T03:23:09;2.92;;;2.65;;
48751;SDS011;34544;48.836;9.174;2023-08-31T03:25:36;3.92;;;2.50;;
48751;SDS011;34544;48.836;9.174;2023-08-31T03:28:02;4.35;;;2.72;;
48751;SDS011;34544;48.836;9.174;2023-08-31T03:30:28;3.45;;;2.63;;
48751;SDS011;34544;48.836;9.174;2023-08-31T03:32:55;2.92;;;2.17;;
48751;SDS011;34544;48.836;9.174;2023-08-31T03:35:21;3.30;;;2.00;;
48751;SDS011;34544;48.836;9.174;2023-08-31T03:37:53;3.72;;;2.50;;
48751;SDS011;34544;48.836;9.174;2023-08-31T03:40:19;4.07;;;2.85;;
48751;SDS011;34544;48.836;9.174;2023-08-31T03:42:45;4.47;;;2.40;;
48751;SDS011;34544;48.836;9.174;2023-08-31T03:45:11;6.18;;;2.55;;
48751;SDS011;34544;48.836;9.174;2023-08-31T03:47:37;4.60;;;2.47;;
48751;SDS011;34544;48.836;9.174;2023-08-31T03:50:03;5.57;;;2.72;;
48751;SDS011;34544;48.836;9.174;2023-08-31T03:52:29;2.40;;;2.20;;
48751;SDS011;34544;48.836;9.174;2023-08-31T03:54:55;5.68;;;2.10;;
48751;SDS011;34544;48.836;9.174;2023-08-31T03:57:21;5.03;;;2.83;;
48751;SDS011;34544;48.836;9.174;2023-08-31T03:59:50;3.50;;;2.60;;
48751;SDS011;34544;48.836;9.174;2023-08-31T04:02:16;10.13;;;3.22;;
48751;SDS011;34544;48.836;9.174;2023-08-31T04:04:41;6.88;;;2.25;;
48751;SDS011;34544;48.836;9.174;2023-08-31T04:07:07;5.85;;;2.50;;
48751;SDS011;34544;48.836;9.174;2023-08-31T04:09:33;5.15;;;2.70;;
48751;SDS011;34544;48.836;9.174;2023-08-31T04:11:59;4.13;;;2.30;;
48751;SDS011;34544;48.836;9.174;2023-08-31T04:14:28;3.42;;;2.45;;
48751;SDS011;34544;48.836;9.174;2023-08-31T04:16:56;6.10;;;2.63;;
48751;SDS011;34544;48.836;9.174;2023-08-31T04:19:22;3.55;;;2.70;;
48751;SDS011;34544;48.836;9.174;2023-08-31T04:21:48;4.63;;;2.90;;
48751;SDS011;34544;48.836;9.174;2023-08-31T04:24:14;3.75;;;2.55;;
48751;SDS011;34544;48.836;9.174;2023-08-31T04:26:40;7.35;;;3.30;;
48751;SDS011;34544;48.836;9.174;2023-08-31T04:29:05;8.43;;;2.65;;
48751;SDS011;34544;48.836;9.174;2023-08-31T04:31:31;4.88;;;2.75;;
48751;SDS011;34544;48.836;9.174;2023-08-31T04:33:57;5.97;;;2.70;;
48751;SDS011;34544;48.836;9.174;2023-08-31T04:36:23;7.32;;;3.55;;
48751;SDS011;34544;48.836;9.174;2023-08-31T04:38:51;7.38;;;2.90;;
48751;SDS011;34544;48.836;9.174;2023-08-31T04:41:17;4.85;;;3.17;;
48751;SDS011;34544;48.836;9.174;2023-08-31T04:43:43;4.15;;;2.47;;
48751;SDS011;34544;48.836;9.174;2023-08-31T04:46:09;3.83;;;2.67;;
48751;SDS011;34544;48.836;9.174;2023-08-31T04:48:35;6.78;;;2.92;;
48751;SDS011;34544;48.836;9.174;2023-08-31T04:51:01;4.90;;;2.72;;
48751;SDS011;34544;48.836;9.174;2023-08-31T04:53:28;4.05;;;3.00;;
48751;SDS011;34544;48.836;9.174;2023-08-31T04:55:55;5.65;;;2.92;;
48751;SDS011;34544;48.836;9.174;2023-08-31T04:58:21;5.65;;;2.80;;
48751;SDS011;34544;48.836;9.174;2023-08-31T05:00:46;3.00;;;2.70;;
48751;SDS011;34544;48.836;9.174;2023-08-31T05:03:12;9.65;;;2.83;;
48751;SDS011;34544;48.836;9.174;2023-08-31T05:05:38;5.88;;;2.90;;
48751;SDS011;34544;48.836;9.174;2023-08-31T05:08:04;4.03;;;2.92;;
48751;SDS011;34544;48.836;9.174;2023-08-31T05:10:31;5.93;;;3.10;;
48751;SDS011;34544;48.836;9.174;2023-08-31T05:12:56;6.38;;;3.15;;
48751;SDS011;34544;48.836;9.174;2023-08-31T05:15:22;4.40;;;2.75;;
48751;SDS011;34544;48.836;9.174;2023-08-31T05:17:48;7.68;;;2.90;;
48751;SDS011;34544;48.836;9.174;2023-08-31T05:20:14;4.32;;;3.17;;
48751;SDS011;34544;48.836;9.174;2023-08-31T05:22:39;6.22;;;3.30;;
48751;SDS011;34544;48.836;9.174;2023-08-31T05:25:05;7.80;;;3.00;;
48751;SDS011;34544;48.836;9.174;2023-08-31T05:27:31;7.57;;;3.38;;
48751;SDS011;34544;48.836;9.174;2023-08-31T05:29:57;4.47;;;2.85;;
48751;SDS011;34544;48.836;9.174;2023-08-31T05:32:23;3.65;;;2.60;;
48751;SDS011;34544;48.836;9.174;2023-08-31T05:34:49;6.43;;;2.70;;
48751;SDS011;34544;48.836;9.174;2023-08-31T05:37:14;4.43;;;2.50;;
48751;SDS011;34544;48.836;9.174;2023-08-31T05:39:40;7.43;;;2.63;;
48751;SDS011;34544;48.836;9.174;2023-08-31T05:42:06;7.60;;;2.70;;
48751;SDS011;34544;48.836;9.174;2023-08-31T05:44:31;7.05;;;2.80;;
48751;SDS011;34544;48.836;9.174;2023-08-31T05:46:57;3.58;;;2.92;;
48751;SDS011;34544;48.836;9.174;2023-08-31T05:49:23;7.85;;;3.42;;
48751;SDS011;34544;48.836;9.174;2023-08-31T05:51:49;4.07;;;2.72;;
48751;SDS011;34544;48.836;9.174;2023-08-31T05:54:16;6.82;;;2.85;;
48751;SDS011;34544;48.836;9.174;2023-08-31T05:56:41;6.60;;;2.42;;
48751;SDS011;34544;48.836;9.174;2023-08-31T05:59:07;5.35;;;2.92;;
48751;SDS011;34544;48.836;9.174;2023-08-31T06:01:34;4.38;;;2.92;;
48751;SDS011;34544;48.836;9.174;2023-08-31T06:04:01;4.28;;;2.78;;
48751;SDS011;34544;48.836;9.174;2023-08-31T06:06:28;2.80;;;2.42;;
48751;SDS011;34544;48.836;9.174;2023-08-31T06:08:54;6.45;;;2.70;;
48751;SDS011;34544;48.836;9.174;2023-08-31T06:11:22;5.93;;;2.28;;
48751;SDS011;34544;48.836;9.174;2023-08-31T06:13:47;4.18;;;2.53;;
48751;SDS011;34544;48.836;9.174;2023-08-31T06:16:13;6.55;;;2.20;;
48751;SDS011;34544;48.836;9.174;2023-08-31T06:18:39;4.88;;;2.22;;
48751;SDS011;34544;48.836;9.174;2023-08-31T06:21:05;2.97;;;2.17;;
48751;SDS011;34544;48.836;9.174;2023-08-31T06:23:31;7.93;;;3.13;;
48751;SDS011;34544;48.836;9.174;2023-08-31T06:25:56;4.63;;;2.30;;
48751;SDS011;34544;48.836;9.174;2023-08-31T06:28:22;4.22;;;2.10;;
48751;SDS011;34544;48.836;9.174;2023-08-31T06:30:48;4.22;;;2.72;;
48751;SDS011;34544;48.836;9.174;2023-08-31T06:33:14;6.80;;;2.78;;
48751;SDS011;34544;48.836;9.174;2023-08-31T06:35:40;6.45;;;2.72;;
48751;SDS011;34544;48.836;9.174;2023-08-31T06:38:06;5.72;;;2.83;;
48751;SDS011;34544;48.836;9.174;2023-08-31T06:40:32;6.07;;;2.65;;
48751;SDS011;34544;48.836;9.174;2023-08-31T06:42:58;3.50;;;2.75;;
48751;SDS011;34544;48.836;9.174;2023-08-31T06:45:24;4.30;;;2.55;;
48751;SDS011;34544;48.836;9.174;2023-08-31T06:47:50;4.78;;;2.30;;
48751;SDS011;34544;48.836;9.174;2023-08-31T06:50:16;6.45;;;3.08;;
48751;SDS011;34544;48.836;9.174;2023-08-31T06:52:42;4.53;;;2.20;;
48751;SDS011;34544;48.836;9.174;2023-08-31T06:55:09;4.72;;;1.77;;
48751;SDS011;34544;48.836;9.174;2023-08-31T06:57:36;7.85;;;1.65;;
48751;SDS011;34544;48.836;9.174;2023-08-31T07:00:02;6.15;;;2.15;;
48751;SDS011;34544;48.836;9.174;2023-08-31T07:02:29;4.40;;;2.33;;
48751;SDS011;34544;48.836;9.174;2023-08-31T07:04:55;2.63;;;1.55;;
48751;SDS011;34544;48.836;9.174;2023-08-31T07:07:20;8.50;;;2.00;;
48751;SDS011;34544;48.836;9.174;2023-08-31T07:09:46;3.90;;;2.10;;
48751;SDS011;34544;48.836;9.174;2023-08-31T07:12:14;3.88;;;1.75;;
48751;SDS011;34544;48.836;9.174;2023-08-31T07:14:39;3.63;;;1.52;;
48751;SDS011;34544;48.836;9.174;2023-08-31T07:17:05;4.13;;;1.90;;
48751;SDS011;34544;48.836;9.174;2023-08-31T07:19:31;2.63;;;1.60;;
48751;SDS011;34544;48.836;9.174;2023-08-31T07:22:00;3.85;;;2.53;;
48751;SDS011;34544;48.836;9.174;2023-08-31T07:24:25;3.60;;;1.90;;
48751;SDS011;34544;48.836;9.174;2023-08-31T07:26:51;2.90;;;1.73;;
48751;SDS011;34544;48.836;9.174;2023-08-31T07:29:17;5.25;;;1.75;;
48751;SDS011;34544;48.836;9.174;2023-08-31T07:31:42;4.13;;;2.20;;
48751;SDS011;34544;48.836;9.174;2023-08-31T07:34:08;3.50;;;1.50;;
48751;SDS011;34544;48.836;9.174;2023-08-31T07:36:34;3.25;;;2.08;;
48751;SDS011;34544;48.836;9.174;2023-08-31T07:38:59;6.38;;;1.67;;
48751;SDS011;34544;48.836;9.174;2023-08-31T07:41:25;7.03;;;1.45;;
48751;SDS011;34544;48.836;9.174;2023-08-31T07:43:51;1.98;;;1.38;;
48751;SDS011;34544;48.836;9.174;2023-08-31T07:46:17;6.97;;;2.58;;
48751;SDS011;34544;48.836;9.174;2023-08-31T07:48:44;4.15;;;1.92;;
48751;SDS011;34544;48.836;9.174;2023-08-31T07:51:10;2.65;;;1.50;;
48751;SDS011;34544;48.836;9.174;2023-08-31T07:53:35;4.35;;;1.38;;
48751;SDS011;34544;48.836;9.174;2023-08-31T07:56:01;2.40;;;1.55;;
48751;SDS011;34544;48.836;9.174;2023-08-31T07:58:27;2.78;;;1.10;;
48751;SDS011;34544;48.836;9.174;2023-08-31T08:00:53;6.32;;;1.98;;
48751;SDS011;34544;48.836;9.174;2023-08-31T08:03:22;2.47;;;1.30;;
48751;SDS011;34544;48.836;9.174;2023-08-31T08:05:48;2.03;;;1.35;;
48751;SDS011;34544;48.836;9.174;2023-08-31T08:08:14;5.22;;;1.60;;
48751;SDS011;34544;48.836;9.174;2023-08-31T08:10:40;2.78;;;1.35;;
48751;SDS011;34544;48.836;9.174;2023-08-31T08:13:08;3.88;;;1.33;;
48751;SDS011;34544;48.836;9.174;2023-08-31T08:15:34;3.53;;;1.55;;
48751;SDS011;34544;48.836;9.174;2023-08-31T08:18:00;5.20;;;1.52;;
48751;SDS011;34544;48.836;9.174;2023-08-31T08:20:26;2.42;;;1.40;;
48751;SDS011;34544;48.836;9.174;2023-08-31T08:22:53;3.58;;;1.48;;
48751;SDS011;34544;48.836;9.174;2023-08-31T08:25:19;4.07;;;1.88;;
48751;SDS011;34544;48.836;9.174;2023-08-31T08:27:45;4.63;;;1.17;;
48751;SDS011;34544;48.836;9.174;2023-08-31T08:30:12;7.20;;;1.80;;
48751;SDS011;34544;48.836;9.174;2023-08-31T08:32:37;6.28;;;1.70;;
48751;SDS011;34544;48.836;9.174;2023-08-31T08:35:03;4.68;;;1.60;;
48751;SDS011;34544;48.836;9.174;2023-08-31T08:37:29;5.15;;;2.10;;
48751;SDS011;34544;48.836;9.174;2023-08-31T08:39:57;4.50;;;1.95;;
48751;SDS011;34544;48.836;9.174;2023-08-31T08:42:24;4.18;;;1.80;;
48751;SDS011;34544;48.836;9.174;2023-08-31T08:44:50;4.13;;;1.92;;
48751;SDS011;34544;48.836;9.174;2023-08-31T08:47:16;3.65;;;1.83;;
48751;SDS011;34544;48.836;9.174;2023-08-31T08:49:43;4.63;;;2.70;;
48751;SDS011;34544;48.836;9.174;2023-08-31T08:52:09;6.72;;;1.67;;
48751;SDS011;34544;48.836;9.174;2023-08-31T08:54:36;2.45;;;1.27;;
48751;SDS011;34544;48.836;9.174;2023-08-31T08:57:03;4.95;;;1.63;;
48751;SDS011;34544;48.836;9.174;2023-08-31T08:59:32;6.20;;;1.80;;
48751;SDS011;34544;48.836;9.174;2023-08-31T09:01:58;5.70;;;1.88;;
48751;SDS011;34544;48.836;9.174;2023-08-31T09:04:24;2.20;;;1.40;;
48751;SDS011;34544;48.836;9.174;2023-08-31T09:06:50;7.07;;;1.70;;
48751;SDS011;34544;48.836;9.174;2023-08-31T09:09:16;5.60;;;1.95;;
48751;SDS011;34544;48.836;9.174;2023-08-31T09:11:42;3.78;;;1.25;;
48751;SDS011;34544;48.836;9.174;2023-08-31T09:14:19;3.00;;;1.58;;
48751;SDS011;34544;48.836;9.174;2023-08-31T09:16:46;2.72;;;1.52;;
48751;SDS011;34544;48.836;9.174;2023-08-31T09:19:19;9.13;;;1.60;;
48751;SDS011;34544;48.836;9.174;2023-08-31T09:21:47;2.78;;;2.03;;
48751;SDS011;34544;48.836;9.174;2023-08-31T09:24:14;3.83;;;1.33;;
48751;SDS011;34544;48.836;9.174;2023-08-31T09:26:40;5.28;;;1.88;;
48751;SDS011;34544;48.836;9.174;2023-08-31T09:29:09;3.83;;;1.90;;
48751;SDS011;34544;48.836;9.174;2023-08-31T09:31:35;7.25;;;1.55;;
48751;SDS011;34544;48.836;9.174;2023-08-31T09:34:01;11.88;;;2.20;;
48751;SDS011;34544;48.836;9.174;2023-08-31T09:36:28;3.78;;;1.80;;
48751;SDS011;34544;48.836;9.174;2023-08-31T09:39:00;5.28;;;1.92;;
48751;SDS011;34544;48.836;9.174;2023-08-31T09:41:26;3.67;;;1.60;;
48751;SDS011;34544;48.836;9.174;2023-08-31T09:43:52;4.53;;;1.60;;
48751;SDS011;34544;48.836;9.174;2023-08-31T09:46:18;3.72;;;1.50;;
48751;SDS011;34544;48.836;9.174;2023-08-31T09:48:46;4.50;;;1.73;;
48751;SDS011;34544;48.836;9.174;2023-08-31T09:51:13;2.67;;;1.50;;
48751;SDS011;34544;48.836;9.174;2023-08-31T09:53:42;2.55;;;1.17;;
48751;SDS011;34544;48.836;9.174;2023-08-31T09:56:14;3.30;;;1.50;;
48751;SDS011;34544;48.836;9.174;2023-08-31T09:58:46;4.65;;;1.60;;
48751;SDS011;34544;48.836;9.174;2023-08-31T10:01:12;4.05;;;1.40;;
48751;SDS011;34544;48.836;9.174;2023-08-31T10:03:39;3.53;;;1.92;;
48751;SDS011;34544;48.836;9.174;2023-08-31T10:06:05;1.55;;;1.25;;
48751;SDS011;34544;48.836;9.174;2023-08-31T10:08:32;2.55;;;1.35;;
48751;SDS011;34544;48.836;9.174;2023-08-31T10:11:01;2.33;;;1.20;;
48751;SDS011;34544;48.836;9.174;2023-08-31T10:13:31;2.95;;;1.38;;
48751;SDS011;34544;48.836;9.174;2023-08-31T10:16:00;3.28;;;1.70;;
48751;SDS011;34544;48.836;9.174;2023-08-31T10:18:28;1.77;;;1.27;;
48751;SDS011;34544;48.836;9.174;2023-08-31T10:20:55;1.73;;;1.48;;
48751;SDS011;34544;48.836;9.174;2023-08-31T10:23:21;3.53;;;1.50;;
48751;SDS011;34544;48.836;9.174;2023-08-31T10:28:21;3.38;;;1.52;;
48751;SDS011;34544;48.836;9.174;2023-08-31T10:33:33;7.22;;;2.13;;
48751;SDS011;34544;48.836;9.174;2023-08-31T10:36:19;5.00;;;1.90;;
48751;SDS011;34544;48.836;9.174;2023-08-31T10:41:23;6.57;;;2.67;;
48751;SDS011;34544;48.836;9.174;2023-08-31T10:48:56;6.78;;;2.00;;
48751;SDS011;34544;48.836;9.174;2023-08-31T10:51:35;7.00;;;2.20;;
48751;SDS011;34544;48.836;9.174;2023-08-31T10:54:22;4.43;;;1.35;;
48751;SDS011;34544;48.836;9.174;2023-08-31T11:07:32;2.72;;;1.50;;
48751;SDS011;34544;48.836;9.174;2023-08-31T11:12:39;8.98;;;2.33;;
48751;SDS011;34544;48.836;9.174;2023-08-31T11:15:05;3.60;;;1.27;;
48751;SDS011;34544;48.836;9.174;2023-08-31T11:17:31;6.65;;;1.70;;
48751;SDS011;34544;48.836;9.174;2023-08-31T11:19:58;4.05;;;2.70;;
48751;SDS011;34544;48.836;9.174;2023-08-31T11:22:24;6.35;;;1.75;;
48751;SDS011;34544;48.836;9.174;2023-08-31T11:24:50;3.42;;;1.48;;
48751;SDS011;34544;48.836;9.174;2023-08-31T11:27:20;3.55;;;2.00;;
48751;SDS011;34544;48.836;9.174;2023-08-31T11:29:46;4.45;;;1.55;;
48751;SDS011;34544;48.836;9.174;2023-08-31T11:32:13;6.75;;;1.73;;
48751;SDS011;34544;48.836;9.174;2023-08-31T11:34:43;8.00;;;2.05;;
48751;SDS011;34544;48.836;9.174;2023-08-31T11:37:11;4.93;;;1.60;;
48751;SDS011;34544;48.836;9.174;2023-08-31T11:39:42;6.15;;;1.65;;
48751;SDS011;34544;48.836;9.174;2023-08-31T11:42:19;5.45;;;1.50;;
48751;SDS011;34544;48.836;9.174;2023-08-31T11:44:46;6.22;;;2.13;;
48751;SDS011;34544;48.836;9.174;2023-08-31T11:47:17;3.67;;;1.87;;
48751;SDS011;34544;48.836;9.174;2023-08-31T11:49:44;4.65;;;1.48;;
48751;SDS011;34544;48.836;9.174;2023-08-31T11:52:11;5.30;;;2.53;;
48751;SDS011;34544;48.836;9.174;2023-08-31T11:54:38;5.43;;;1.88;;
48751;SDS011;34544;48.836;9.174;2023-08-31T11:57:08;5.60;;;1.80;;
48751;SDS011;34544;48.836;9.174;2023-08-31T11:59:35;5.07;;;1.90;;
48751;SDS011;34544;48.836;9.174;2023-08-31T12:02:02;4.28;;;1.73;;
48751;SDS011;34544;48.836;9.174;2023-08-31T12:04:30;5.38;;;2.00;;
48751;SDS011;34544;48.836;9.174;2023-08-31T12:07:03;4.53;;;1.70;;
48751;SDS011;34544;48.836;9.174;2023-08-31T12:09:32;3.85;;;1.70;;
48751;SDS011;34544;48.836;9.174;2023-08-31T12:11:58;4.40;;;1.55;;
48751;SDS011;34544;48.836;9.174;2023-08-31T12:14:25;4.65;;;1.75;;
48751;SDS011;34544;48.836;9.174;2023-08-31T12:17:03;4.70;;;1.65;;
48751;SDS011;34544;48.836;9.174;2023-08-31T12:19:33;3.25;;;1.92;;
48751;SDS011;34544;48.836;9.174;2023-08-31T12:22:01;6.75;;;2.03;;
48751;SDS011;34544;48.836;9.174;2023-08-31T12:24:27;5.57;;;2.13;;
48751;SDS011;34544;48.836;9.174;2023-08-31T12:26:53;3.83;;;1.67;;
48751;SDS011;34544;48.836;9.174;2023-08-31T12:29:19;3.35;;;1.55;;
48751;SDS011;34544;48.836;9.174;2023-08-31T12:31:45;4.95;;;1.90;;
48751;SDS011;34544;48.836;9.174;2023-08-31T12:34:11;4.95;;;1.30;;
48751;SDS011;34544;48.836;9.174;2023-08-31T12:36:37;4.43;;;1.77;;
48751;SDS011;34544;48.836;9.174;2023-08-31T12:39:05;5.18;;;1.75;;
48751;SDS011;34544;48.836;9.174;2023-08-31T12:41:35;4.32;;;1.85;;
48751;SDS011;34544;48.836;9.174;2023-08-31T12:44:05;3.92;;;2.15;;
48751;SDS011;34544;48.836;9.174;2023-08-31T12:46:34;2.72;;;1.80;;
48751;SDS011;34544;48.836;9.174;2023-08-31T12:49:00;2.30;;;1.48;;
48751;SDS011;34544;48.836;9.174;2023-08-31T12:51:27;3.47;;;2.50;;
48751;SDS011;34544;48.836;9.174;2023-08-31T12:53:54;5.60;;;2.20;;
48751;SDS011;34544;48.836;9.174;2023-08-31T12:56:20;5.28;;;1.95;;
48751;SDS011;34544;48.836;9.174;2023-08-31T12:58:49;5.25;;;1.60;;
48751;SDS011;34544;48.836;9.174;2023-08-31T13:01:19;7.68;;;2.05;;
48751;SDS011;34544;48.836;9.174;2023-08-31T13:03:46;4.80;;;1.63;;
48751;SDS011;34544;48.836;9.174;2023-08-31T13:06:14;4.38;;;1.63;;
48751;SDS011;34544;48.836;9.174;2023-08-31T13:08:41;8.85;;;2.00;;
48751;SDS011;34544;48.836;9.174;2023-08-31T13:11:08;2.92;;;1.80;;
48751;SDS011;34544;48.836;9.174;2023-08-31T13:13:35;4.25;;;1.80;;
48751;SDS011;34544;48.836;9.174;2023-08-31T13:16:01;6.60;;;1.92;;
48751;SDS011;34544;48.836;9.174;2023-08-31T13:18:27;5.78;;;2.40;;
48751;SDS011;34544;48.836;9.174;2023-08-31T13:20:54;4.68;;;1.90;;
48751;SDS011;34544;48.836;9.174;2023-08-31T13:23:20;5.20;;;2.08;;
48751;SDS011;34544;48.836;9.174;2023-08-31T13:25:47;3.03;;;1.50;;
48751;SDS011;34544;48.836;9.174;2023-08-31T13:28:14;4.10;;;2.05;;
48751;SDS011;34544;48.836;9.174;2023-08-31T13:30:40;4.90;;;2.13;;
48751;SDS011;34544;48.836;9.174;2023-08-31T13:33:07;4.35;;;2.08;;
48751;SDS011;34544;48.836;9.174;2023-08-31T13:35:34;6.07;;;2.20;;
48751;SDS011;34544;48.836;9.174;2023-08-31T13:38:00;2.90;;;1.30;;
48751;SDS011;34544;48.836;9.174;2023-08-31T13:40:28;3.90;;;1.38;;
48751;SDS011;34544;48.836;9.174;2023-08-31T13:42:55;3.40;;;1.42;;
48751;SDS011;34544;48.836;9.174;2023-08-31T13:45:31;3.85;;;1.88;;
48751;SDS011;34544;48.836;9.174;2023-08-31T13:47:58;3.63;;;1.77;;
48751;SDS011;34544;48.836;9.174;2023-08-31T13:50:29;4.40;;;1.67;;
48751;SDS011;34544;48.836;9.174;2023-08-31T13:52:55;3.47;;;1.95;;
48751;SDS011;34544;48.836;9.174;2023-08-31T13:55:21;4.05;;;1.60;;
48751;SDS011;34544;48.836;9.174;2023-08-31T13:57:48;5.15;;;1.65;;
48751;SDS011;34544;48.836;9.174;2023-08-31T14:00:14;3.45;;;1.80;;
48751;SDS011;34544;48.836;9.174;2023-08-31T14:02:41;4.75;;;2.03;;
48751;SDS011;34544;48.836;9.174;2023-08-31T14:05:09;7.53;;;2.20;;
48751;SDS011;34544;48.836;9.174;2023-08-31T14:07:35;5.75;;;1.92;;
48751;SDS011;34544;48.836;9.174;2023-08-31T14:10:02;3.22;;;1.50;;
48751;SDS011;34544;48.836;9.174;2023-08-31T14:12:32;3.33;;;1.70;;
48751;SDS011;34544;48.836;9.174;2023-08-31T14:14:58;3.50;;;1.30;;
48751;SDS011;34544;48.836;9.174;2023-08-31T14:17:26;3.50;;;1.80;;
48751;SDS011;34544;48.836;9.174;2023-08-31T14:19:51;3.97;;;1.95;;
48751;SDS011;34544;48.836;9.174;2023-08-31T14:22:17;8.60;;;2.10;;
48751;SDS011;34544;48.836;9.174;2023-08-31T14:24:43;6.93;;;2.00;;
48751;SDS011;34544;48.836;9.174;2023-08-31T14:27:08;2.65;;;1.40;;
48751;SDS011;34544;48.836;9.174;2023-08-31T14:29:34;4.70;;;1.70;;
48751;SDS011;34544;48.836;9.174;2023-08-31T14:32:02;5.45;;;2.67;;
48751;SDS011;34544;48.836;9.174;2023-08-31T14:34:29;3.42;;;1.90;;
48751;SDS011;34544;48.836;9.174;2023-08-31T14:36:56;6.65;;;1.83;;
48751;SDS011;34544;48.836;9.174;2023-08-31T14:39:24;5.10;;;1.90;;
48751;SDS011;34544;48.836;9.174;2023-08-31T14:41:55;5.82;;;2.22;;
48751;SDS011;34544;48.836;9.174;2023-08-31T14:44:21;5.47;;;2.20;;
48751;SDS011;34544;48.836;9.174;2023-08-31T14:46:47;6.68;;;2.40;;
48751;SDS011;34544;48.836;9.174;2023-08-31T14:49:13;4.38;;;1.73;;
48751;SDS011;34544;48.836;9.174;2023-08-31T14:51:39;3.63;;;1.45;;
48751;SDS011;34544;48.836;9.174;2023-08-31T14:54:05;7.88;;;1.95;;
48751;SDS011;34544;48.836;9.174;2023-08-31T14:56:31;4.85;;;2.05;;
48751;SDS011;34544;48.836;9.174;2023-08-31T14:58:57;6.85;;;1.95;;
48751;SDS011;34544;48.836;9.174;2023-08-31T15:01:25;4.43;;;2.38;;
48751;SDS011;34544;48.836;9.174;2023-08-31T15:03:51;4.20;;;2.00;;
48751;SDS011;34544;48.836;9.174;2023-08-31T15:06:20;7.07;;;2.28;;
48751;SDS011;34544;48.836;9.174;2023-08-31T15:08:49;7.18;;;1.83;;
48751;SDS011;34544;48.836;9.174;2023-08-31T15:11:17;3.85;;;2.00;;
48751;SDS011;34544;48.836;9.174;2023-08-31T15:13:44;7.18;;;2.58;;
48751;SDS011;34544;48.836;9.174;2023-08-31T15:16:10;6.95;;;1.98;;
48751;SDS011;34544;48.836;9.174;2023-08-31T15:18:35;4.47;;;1.75;;
48751;SDS011;34544;48.836;9.174;2023-08-31T15:21:01;5.75;;;2.33;;